Grimsby, United Kingdom
Current Conditions -  °F | °C
As of 12:20 PM on Monday 20 Oct 2014 (Local Time) from EGNJ Reporting Station
Light Rain Light Rain  
Wind Chill: 55°   Ceiling: 3500
Heat Index: 55°   Visibility: 4mi
Dew Point: 52°   Wind: 16mph
Humidity: 88%   Direction: 220°SW
Pressure: 29.88"   Gusts: NA
Location:  53.57°N, 0.08°W
Report Text: EGNJ 201120Z 22014KT 7000 -RA BKN035 13/11 Q1012
Loading
Personal Weather Stations






























Interactive Weather Map
Tropical Storm Tracking
New forecast layout! Learn more

10-Day Weather Forecast

Advertisements
Track Severe Weather on mobile